createdAt,value
2017-06-20T00:01:25.687Z,7.60
2017-06-20T00:03:54.077Z,6.33
2017-06-20T00:06:35.548Z,6.53
2017-06-20T00:09:13.294Z,6.00
2017-06-20T00:11:43.933Z,5.90
2017-06-20T00:14:12.864Z,6.27
2017-06-20T00:16:51.738Z,6.03
2017-06-20T00:19:20.474Z,5.63
2017-06-20T00:21:50.197Z,7.20
2017-06-20T00:24:18.590Z,7.50
2017-06-20T00:26:46.964Z,6.30
2017-06-20T00:29:15.354Z,6.20
2017-06-20T00:31:43.744Z,6.17
2017-06-20T00:34:12.149Z,5.40
2017-06-20T00:36:40.540Z,6.10
2017-06-20T00:39:08.930Z,6.50
2017-06-20T00:41:37.315Z,6.23
2017-06-20T00:44:06.472Z,5.60
2017-06-20T00:46:34.904Z,5.73
2017-06-20T00:49:04.058Z,4.97
2017-06-20T00:51:32.447Z,7.40
2017-06-20T00:54:00.851Z,5.33
2017-06-20T00:56:30.006Z,5.60
2017-06-20T00:58:58.410Z,5.80
2017-06-20T01:01:26.795Z,5.83
2017-06-20T01:03:56.043Z,5.47
2017-06-20T01:06:24.451Z,5.83
2017-06-20T01:08:52.837Z,5.27
2017-06-20T01:11:21.280Z,5.73
2017-06-20T01:13:49.663Z,6.30
2017-06-20T01:16:18.050Z,5.90
2017-06-20T01:18:46.456Z,6.50
2017-06-20T01:21:14.843Z,5.37
2017-06-20T01:23:44.067Z,5.80
2017-06-20T01:26:12.475Z,5.03
2017-06-20T01:28:40.872Z,6.10
2017-06-20T01:31:09.269Z,5.00
2017-06-20T01:33:37.655Z,6.20
2017-06-20T01:36:06.853Z,5.00
2017-06-20T01:38:36.013Z,4.73
2017-06-20T01:41:04.415Z,6.00
2017-06-20T01:43:32.821Z,5.70
2017-06-20T01:46:01.210Z,6.33
2017-06-20T01:48:29.629Z,6.10
2017-06-20T01:50:58.003Z,6.10
2017-06-20T01:53:26.393Z,7.53
2017-06-20T01:55:54.091Z,5.97
2017-06-20T01:58:23.264Z,6.60
2017-06-20T02:00:50.970Z,6.67
2017-06-20T02:03:19.388Z,7.27
2017-06-20T02:05:47.768Z,5.83
2017-06-20T02:08:16.175Z,6.20
2017-06-20T02:10:43.905Z,6.47
2017-06-20T02:13:12.320Z,5.90
2017-06-20T02:15:41.474Z,6.00
2017-06-20T02:18:09.848Z,6.17
2017-06-20T02:20:38.238Z,6.57
2017-06-20T02:23:06.615Z,6.07
2017-06-20T02:25:35.026Z,5.23
2017-06-20T02:28:03.829Z,5.43
2017-06-20T02:30:31.878Z,5.77
2017-06-20T02:33:01.054Z,6.40
2017-06-20T02:35:29.498Z,6.73
2017-06-20T02:37:57.937Z,5.60
2017-06-20T02:40:26.341Z,5.57
2017-06-20T02:42:54.732Z,5.93
2017-06-20T02:45:23.149Z,5.90
2017-06-20T02:47:51.547Z,5.37
2017-06-20T02:50:20.722Z,5.20
2017-06-20T02:52:49.125Z,5.40
2017-06-20T02:55:18.270Z,5.90
2017-06-20T02:57:46.668Z,6.30
2017-06-20T03:00:15.060Z,6.60
2017-06-20T03:02:43.493Z,5.87
2017-06-20T03:05:11.883Z,5.53
2017-06-20T03:07:40.270Z,5.97
2017-06-20T03:10:08.736Z,6.00
2017-06-20T03:12:37.704Z,6.03
2017-06-20T03:15:06.174Z,5.00
2017-06-20T03:17:35.314Z,6.00
2017-06-20T03:20:03.690Z,5.23
2017-06-20T03:22:32.080Z,5.57
2017-06-20T03:25:00.451Z,5.27
2017-06-20T03:27:28.860Z,5.20
2017-06-20T03:29:57.261Z,5.50
2017-06-20T03:32:26.415Z,5.67
2017-06-20T03:34:54.807Z,5.50
2017-06-20T03:37:23.181Z,5.40
2017-06-20T03:39:51.569Z,6.27
2017-06-20T03:42:19.990Z,5.63
2017-06-20T03:44:48.377Z,5.90
2017-06-20T03:47:16.828Z,5.73
2017-06-20T03:49:45.218Z,5.10
2017-06-20T03:52:13.711Z,5.93
2017-06-20T03:54:42.119Z,5.83
2017-06-20T03:57:10.505Z,5.40
2017-06-20T03:59:38.912Z,6.10
2017-06-20T04:02:08.050Z,6.00
2017-06-20T04:04:36.463Z,6.00
2017-06-20T04:07:04.858Z,5.80
2017-06-20T04:09:33.264Z,6.07
2017-06-20T04:12:01.677Z,5.90
2017-06-20T04:14:30.081Z,5.47
2017-06-20T04:16:58.476Z,6.27
2017-06-20T04:19:27.662Z,5.60
2017-06-20T04:21:56.213Z,5.53
2017-06-20T04:24:24.629Z,5.57
2017-06-20T04:26:53.861Z,5.73
2017-06-20T04:29:22.271Z,5.90
2017-06-20T04:31:50.684Z,6.13
2017-06-20T04:34:19.844Z,5.30
2017-06-20T04:36:48.248Z,6.03
2017-06-20T04:39:16.639Z,6.20
2017-06-20T04:41:45.802Z,5.67
2017-06-20T04:44:14.196Z,5.87
2017-06-20T04:46:42.587Z,6.20
2017-06-20T04:49:11.774Z,6.13
2017-06-20T04:51:40.162Z,5.80
2017-06-20T04:54:09.347Z,6.70
2017-06-20T04:56:37.735Z,5.77
2017-06-20T04:59:06.888Z,5.60
2017-06-20T05:01:35.304Z,6.00
2017-06-20T05:04:04.462Z,5.57
2017-06-20T05:06:32.882Z,6.37
2017-06-20T05:09:02.038Z,6.07
2017-06-20T05:11:30.529Z,6.17
2017-06-20T05:13:58.944Z,5.90
2017-06-20T05:16:28.106Z,6.83
2017-06-20T05:18:56.511Z,5.63
2017-06-20T05:21:25.666Z,6.10
2017-06-20T05:23:54.053Z,6.10
2017-06-20T05:26:22.456Z,5.10
2017-06-20T05:28:50.861Z,6.77
2017-06-20T05:31:19.296Z,6.40
2017-06-20T05:33:47.685Z,5.97
2017-06-20T05:36:16.059Z,6.40
2017-06-20T05:38:44.465Z,5.90
2017-06-20T05:41:12.853Z,7.30
2017-06-20T05:43:41.245Z,5.93
2017-06-20T05:46:09.633Z,6.20
2017-06-20T05:48:38.020Z,6.13
2017-06-20T05:51:06.415Z,6.27
2017-06-20T05:53:34.800Z,6.77
2017-06-20T05:56:03.204Z,7.00
2017-06-20T05:58:32.354Z,7.30
2017-06-20T06:01:00.748Z,6.70
2017-06-20T06:03:29.187Z,6.80
2017-06-20T06:05:57.602Z,6.93
2017-06-20T06:08:26.004Z,6.73
2017-06-20T06:10:54.431Z,7.53
2017-06-20T06:13:22.828Z,9.93
2017-06-20T06:15:51.234Z,8.10
2017-06-20T06:18:20.412Z,9.20
2017-06-20T06:20:48.853Z,8.80
2017-06-20T06:23:17.265Z,9.10
2017-06-20T06:25:45.644Z,8.17
2017-06-20T06:28:14.077Z,9.23
2017-06-20T06:30:43.234Z,9.53
2017-06-20T06:33:11.639Z,7.90
2017-06-20T06:35:40.824Z,7.87
2017-06-20T06:38:09.226Z,9.10
2017-06-20T06:40:37.631Z,9.20
2017-06-20T06:43:06.022Z,8.57
2017-06-20T06:45:34.439Z,7.83
2017-06-20T06:48:03.617Z,10.03
2017-06-20T06:50:32.016Z,9.50
2017-06-20T06:53:01.228Z,8.80
2017-06-20T06:55:30.382Z,9.90
2017-06-20T06:57:58.790Z,10.60
2017-06-20T07:00:27.957Z,8.70
2017-06-20T07:02:56.359Z,13.83
2017-06-20T07:05:24.764Z,12.57
2017-06-20T07:07:53.158Z,12.90
2017-06-20T07:10:21.726Z,13.20
2017-06-20T07:12:50.159Z,13.27
2017-06-20T07:15:18.539Z,12.97
2017-06-20T07:17:46.941Z,11.73
2017-06-20T07:20:16.126Z,11.47
2017-06-20T07:22:44.599Z,10.93
2017-06-20T07:25:12.981Z,11.20
2017-06-20T07:27:41.384Z,11.07
2017-06-20T07:30:10.561Z,10.50
2017-06-20T07:32:39.737Z,11.00
2017-06-20T07:35:08.151Z,10.27
2017-06-20T07:37:37.297Z,9.90
2017-06-20T07:40:05.686Z,9.87
2017-06-20T07:42:34.090Z,8.73
2017-06-20T07:45:02.526Z,9.10
2017-06-20T07:47:30.932Z,9.47
2017-06-20T07:49:59.331Z,9.77
2017-06-20T07:52:28.621Z,9.67
2017-06-20T07:54:57.050Z,8.90
2017-06-20T07:57:25.584Z,8.53
2017-06-20T07:59:54.256Z,9.10
2017-06-20T08:02:22.691Z,9.27
2017-06-20T08:04:51.093Z,9.40
2017-06-20T08:07:19.492Z,8.80
2017-06-20T08:09:47.889Z,8.53
2017-06-20T08:12:17.085Z,8.80
2017-06-20T08:14:45.515Z,10.00
2017-06-20T08:17:13.908Z,9.53
2017-06-20T08:19:42.314Z,9.70
2017-06-20T08:22:13.013Z,9.20
2017-06-20T08:24:41.421Z,9.00
2017-06-20T08:27:09.817Z,9.30
2017-06-20T08:29:38.211Z,9.83
2017-06-20T08:32:06.604Z,8.90
2017-06-20T08:34:35.005Z,7.93
2017-06-20T08:37:08.945Z,7.20
2017-06-20T08:39:37.337Z,6.33
2017-06-20T08:42:06.489Z,6.70
2017-06-20T08:44:34.909Z,6.57
2017-06-20T08:47:04.062Z,7.33
2017-06-20T08:49:32.481Z,7.80
2017-06-20T08:52:00.910Z,7.53
2017-06-20T08:54:28.944Z,7.27
2017-06-20T08:56:57.349Z,8.47
2017-06-20T08:59:25.755Z,8.13
2017-06-20T09:01:54.177Z,9.90
2017-06-20T09:04:22.600Z,8.93
2017-06-20T09:06:50.985Z,9.17
2017-06-20T09:09:19.389Z,10.77
2017-06-20T09:11:47.777Z,9.70
2017-06-20T09:14:16.205Z,10.93
2017-06-20T09:16:44.601Z,9.37
2017-06-20T09:19:12.989Z,9.73
2017-06-20T09:21:41.380Z,9.10
2017-06-20T09:24:09.766Z,11.23
2017-06-20T09:26:38.961Z,9.10
2017-06-20T09:29:08.123Z,8.17
2017-06-20T09:31:36.513Z,9.23
2017-06-20T09:34:04.914Z,9.03
2017-06-20T09:36:34.084Z,7.60
2017-06-20T09:39:02.505Z,8.37
2017-06-20T09:41:31.656Z,8.70
2017-06-20T09:44:00.063Z,8.23
2017-06-20T09:46:28.918Z,8.63
2017-06-20T09:48:57.314Z,8.97
2017-06-20T09:51:25.724Z,9.17
2017-06-20T09:53:54.717Z,11.10
2017-06-20T09:56:23.878Z,10.83
2017-06-20T09:58:52.286Z,10.13
2017-06-20T10:01:21.455Z,10.30
2017-06-20T10:03:49.871Z,10.97
2017-06-20T10:06:18.275Z,11.03
2017-06-20T10:08:46.673Z,11.60
2017-06-20T10:11:15.134Z,10.10
2017-06-20T10:13:43.528Z,12.33
2017-06-20T10:16:11.927Z,10.70
2017-06-20T10:18:40.332Z,10.50
2017-06-20T10:21:09.490Z,11.30
2017-06-20T10:23:37.905Z,11.87
2017-06-20T10:26:07.061Z,12.70
2017-06-20T10:28:35.458Z,12.60
2017-06-20T10:31:03.868Z,12.33
2017-06-20T10:33:32.259Z,11.40
2017-06-20T10:36:00.672Z,11.10
2017-06-20T10:38:29.054Z,11.23
2017-06-20T10:40:57.504Z,11.53
2017-06-20T10:43:25.905Z,11.00
2017-06-20T10:45:54.302Z,9.80
2017-06-20T10:48:22.712Z,10.80
2017-06-20T10:50:51.105Z,9.20
2017-06-20T10:53:19.598Z,10.23
2017-06-20T10:55:48.017Z,8.63
2017-06-20T10:58:16.414Z,8.13
2017-06-20T11:00:45.618Z,7.60
2017-06-20T11:03:14.785Z,8.40
2017-06-20T11:05:43.177Z,10.80
2017-06-20T11:08:11.611Z,8.30
2017-06-20T11:10:39.999Z,7.33
2017-06-20T11:13:08.402Z,7.50
2017-06-20T11:15:36.787Z,8.20
2017-06-20T11:18:05.182Z,8.33
2017-06-20T11:20:34.367Z,10.10
2017-06-20T11:23:02.757Z,9.10
2017-06-20T11:25:31.934Z,8.90
2017-06-20T11:28:00.328Z,8.63
2017-06-20T11:30:29.507Z,8.80
2017-06-20T11:32:57.926Z,6.60
2017-06-20T11:35:29.181Z,7.10
2017-06-20T11:37:57.623Z,7.10
2017-06-20T11:40:26.807Z,7.50
2017-06-20T11:42:55.193Z,7.27
2017-06-20T11:45:24.402Z,6.87
2017-06-20T11:47:53.591Z,7.63
2017-06-20T11:50:22.760Z,9.33
2017-06-20T11:52:51.153Z,8.50
2017-06-20T11:55:19.601Z,6.87
2017-06-20T11:57:47.998Z,7.17
2017-06-20T12:00:16.378Z,6.40
2017-06-20T12:02:44.822Z,7.17
2017-06-20T12:05:13.217Z,6.47
2017-06-20T12:07:41.606Z,6.80
2017-06-20T12:10:10.006Z,6.43
2017-06-20T12:12:38.401Z,7.50
2017-06-20T12:15:06.815Z,7.50
2017-06-20T12:17:35.208Z,7.90
2017-06-20T12:20:03.616Z,7.60
2017-06-20T12:22:32.036Z,6.97
2017-06-20T12:25:00.432Z,7.27
2017-06-20T12:27:28.867Z,7.57
2017-06-20T12:29:57.288Z,6.37
2017-06-20T12:32:25.681Z,6.90
2017-06-20T12:34:54.085Z,8.50
2017-06-20T12:37:22.477Z,7.03
2017-06-20T12:39:50.909Z,7.20
2017-06-20T12:42:19.301Z,7.53
2017-06-20T12:44:47.673Z,7.67
2017-06-20T12:47:16.078Z,9.33
2017-06-20T12:49:44.453Z,9.40
2017-06-20T12:52:12.871Z,11.90
2017-06-20T12:54:41.270Z,11.50
2017-06-20T12:57:11.898Z,10.77
2017-06-20T12:59:40.407Z,9.90
2017-06-20T13:02:08.804Z,12.23
2017-06-20T13:04:37.985Z,11.70
2017-06-20T13:07:06.384Z,12.20
2017-06-20T13:09:35.546Z,11.80
2017-06-20T13:12:03.964Z,10.83
2017-06-20T13:14:32.392Z,10.23
2017-06-20T13:17:00.832Z,9.97
2017-06-20T13:19:29.262Z,11.13
2017-06-20T13:21:58.631Z,10.40
2017-06-20T13:24:27.024Z,10.60
2017-06-20T13:26:55.484Z,9.83
2017-06-20T13:29:23.892Z,10.30
2017-06-20T13:31:52.294Z,8.97
2017-06-20T13:34:20.698Z,10.40
2017-06-20T13:36:49.898Z,8.97
2017-06-20T13:39:18.302Z,9.40
2017-06-20T13:41:46.737Z,10.43
2017-06-20T13:44:15.125Z,11.20
2017-06-20T13:46:44.309Z,11.20
2017-06-20T13:49:12.715Z,9.10
2017-06-20T13:51:41.114Z,10.50
2017-06-20T13:54:09.568Z,10.13
2017-06-20T13:56:38.725Z,9.97
2017-06-20T13:59:07.128Z,10.00
2017-06-20T14:01:36.297Z,9.53
2017-06-20T14:04:04.686Z,9.33
2017-06-20T14:06:33.105Z,10.43
2017-06-20T14:09:01.497Z,10.77
2017-06-20T14:11:29.894Z,9.67
2017-06-20T14:13:58.339Z,9.77
2017-06-20T14:16:26.741Z,9.60
2017-06-20T14:18:55.156Z,9.70
2017-06-20T14:21:26.622Z,9.20
2017-06-20T14:23:55.089Z,10.53
2017-06-20T14:26:23.494Z,10.23
2017-06-20T14:28:52.670Z,10.07
2017-06-20T14:31:21.069Z,8.77
2017-06-20T14:33:49.479Z,9.17
2017-06-20T14:36:17.889Z,8.90
2017-06-20T14:38:46.278Z,9.30
2017-06-20T14:41:14.694Z,8.73
2017-06-20T14:43:43.101Z,8.93
2017-06-20T14:46:11.580Z,8.83
2017-06-20T14:48:40.000Z,8.60
2017-06-20T14:51:08.390Z,8.93
2017-06-20T14:53:37.558Z,8.73
2017-06-20T14:56:05.965Z,9.57
2017-06-20T14:58:35.143Z,10.07
2017-06-20T15:01:04.108Z,9.30
2017-06-20T15:03:32.343Z,8.40
2017-06-20T15:06:00.731Z,8.60
2017-06-20T15:08:29.141Z,8.20
2017-06-20T15:10:57.545Z,8.30
2017-06-20T15:13:26.732Z,8.20
2017-06-20T15:15:55.118Z,8.53
2017-06-20T15:18:23.623Z,9.00
2017-06-20T15:20:52.050Z,8.80
2017-06-20T15:23:20.437Z,7.73
2017-06-20T15:25:48.857Z,7.50
2017-06-20T15:28:17.261Z,9.00
2017-06-20T15:30:45.666Z,8.20
2017-06-20T15:33:14.141Z,8.40
2017-06-20T15:35:42.533Z,8.40
2017-06-20T15:38:10.937Z,8.20
2017-06-20T15:40:40.093Z,7.67
2017-06-20T15:43:08.484Z,7.30
2017-06-20T15:45:36.932Z,8.70
2017-06-20T15:48:05.473Z,7.67
2017-06-20T15:50:34.669Z,6.67
2017-06-20T15:53:03.842Z,7.50
2017-06-20T15:55:32.231Z,7.87
2017-06-20T15:58:00.632Z,7.10
2017-06-20T16:00:29.606Z,6.67
2017-06-20T16:02:58.007Z,7.33
2017-06-20T16:05:26.409Z,7.37
2017-06-20T16:07:54.979Z,8.00
2017-06-20T16:10:23.398Z,8.47
2017-06-20T16:12:51.809Z,7.43
2017-06-20T16:15:20.977Z,7.53
2017-06-20T16:17:49.366Z,7.07
2017-06-20T16:20:17.786Z,7.90
2017-06-20T16:22:46.229Z,7.93
2017-06-20T16:25:14.634Z,7.60
2017-06-20T16:27:43.824Z,8.60
2017-06-20T16:30:12.980Z,8.27
2017-06-20T16:32:41.368Z,8.60
2017-06-20T16:35:09.773Z,7.27
2017-06-20T16:37:38.952Z,7.47
2017-06-20T16:40:07.359Z,7.30
2017-06-20T16:42:35.768Z,7.67
2017-06-20T16:45:04.193Z,7.90
2017-06-20T16:47:32.735Z,7.27
2017-06-20T16:50:01.206Z,7.60
2017-06-20T16:52:29.652Z,7.50
2017-06-20T16:54:58.126Z,6.80
2017-06-20T16:57:27.280Z,6.93
2017-06-20T16:59:55.690Z,7.20
2017-06-20T17:02:24.163Z,6.57
2017-06-20T17:04:52.688Z,7.47
2017-06-20T17:07:21.257Z,6.70
2017-06-20T17:09:49.696Z,7.07
2017-06-20T17:12:18.117Z,6.80
2017-06-20T17:14:46.522Z,6.83
2017-06-20T17:17:14.925Z,7.47
2017-06-20T17:19:44.088Z,6.97
2017-06-20T17:22:12.488Z,7.63
2017-06-20T17:24:41.735Z,7.27
2017-06-20T17:27:10.118Z,7.60
2017-06-20T17:29:38.523Z,6.87
2017-06-20T17:32:06.926Z,6.30
2017-06-20T17:34:36.098Z,6.70
2017-06-20T17:37:04.514Z,7.60
2017-06-20T17:39:33.656Z,6.70
2017-06-20T17:42:02.068Z,6.80
2017-06-20T17:44:31.222Z,6.80
2017-06-20T17:46:59.616Z,8.13
2017-06-20T17:49:28.030Z,8.87
2017-06-20T17:51:57.207Z,7.33
2017-06-20T17:54:25.634Z,7.77
2017-06-20T17:56:54.030Z,7.80
2017-06-20T17:59:22.433Z,6.90
2017-06-20T18:01:50.854Z,7.47
2017-06-20T18:04:19.242Z,6.30
2017-06-20T18:06:47.660Z,8.67
2017-06-20T18:09:16.113Z,7.23
2017-06-20T18:11:45.620Z,8.30
2017-06-20T18:14:14.029Z,8.17
2017-06-20T18:16:42.419Z,8.70
2017-06-20T18:19:10.822Z,7.93
2017-06-20T18:21:39.976Z,9.30
2017-06-20T18:24:08.389Z,8.90
2017-06-20T18:26:37.581Z,9.73
2017-06-20T18:29:06.743Z,9.60
2017-06-20T18:31:35.273Z,10.53
2017-06-20T18:34:04.437Z,8.77
2017-06-20T18:36:32.840Z,10.80
2017-06-20T18:39:02.041Z,9.63
2017-06-20T18:41:31.230Z,9.63
2017-06-20T18:44:00.424Z,10.93
2017-06-20T18:46:29.598Z,10.27
2017-06-20T18:48:58.103Z,10.40
2017-06-20T18:51:27.302Z,10.63
2017-06-20T18:53:56.583Z,10.30
2017-06-20T18:56:25.000Z,8.90
2017-06-20T18:58:53.378Z,9.57
2017-06-20T19:01:21.777Z,9.87
2017-06-20T19:03:50.217Z,10.20
2017-06-20T19:06:19.385Z,10.50
2017-06-20T19:08:49.437Z,10.50
2017-06-20T19:11:18.590Z,9.07
2017-06-20T19:13:46.981Z,8.77
2017-06-20T19:16:15.384Z,9.33
2017-06-20T19:18:43.799Z,7.60
2017-06-20T19:21:12.217Z,9.67
2017-06-20T19:23:40.651Z,9.47
2017-06-20T19:26:09.046Z,8.00
2017-06-20T19:28:37.449Z,9.50
2017-06-20T19:31:05.884Z,8.97
2017-06-20T19:33:34.327Z,8.80
2017-06-20T19:36:02.732Z,8.20
2017-06-20T19:38:31.143Z,9.30
2017-06-20T19:40:59.544Z,8.47
2017-06-20T19:43:28.022Z,9.03
2017-06-20T19:45:56.462Z,8.90
2017-06-20T19:48:24.866Z,9.07
2017-06-20T19:50:53.283Z,9.50
2017-06-20T19:53:21.705Z,10.50
2017-06-20T19:55:50.105Z,9.23
2017-06-20T19:58:18.527Z,8.90
2017-06-20T20:00:46.959Z,9.13
2017-06-20T20:03:15.417Z,9.23
2017-06-20T20:05:43.866Z,9.37
2017-06-20T20:08:12.317Z,8.43
2017-06-20T20:10:40.745Z,9.07
2017-06-20T20:13:09.947Z,8.80
2017-06-20T20:15:38.385Z,8.20
2017-06-20T20:18:06.838Z,8.17
2017-06-20T20:20:35.250Z,8.60
2017-06-20T20:23:03.649Z,9.33
2017-06-20T20:25:32.975Z,9.70
2017-06-20T20:28:02.148Z,9.47
2017-06-20T20:30:30.596Z,10.23
2017-06-20T20:32:59.022Z,8.90
2017-06-20T20:35:28.200Z,9.40
2017-06-20T20:37:56.622Z,8.50
2017-06-20T20:40:25.024Z,9.10
2017-06-20T20:42:53.717Z,8.57
2017-06-20T20:45:22.121Z,9.13
2017-06-20T20:47:50.675Z,10.40
2017-06-20T20:50:19.105Z,8.70
2017-06-20T20:52:48.440Z,9.43
2017-06-20T20:55:16.919Z,7.90
2017-06-20T20:57:45.359Z,8.83
2017-06-20T21:00:14.559Z,8.70
2017-06-20T21:02:43.737Z,9.50
2017-06-20T21:05:12.177Z,8.57
2017-06-20T21:07:40.658Z,9.30
2017-06-20T21:10:09.062Z,9.50
2017-06-20T21:12:37.461Z,11.20
2017-06-20T21:15:05.872Z,11.13
2017-06-20T21:17:34.274Z,10.10
2017-06-20T21:20:03.923Z,8.03
2017-06-20T21:22:32.331Z,9.30
2017-06-20T21:25:00.738Z,9.03
2017-06-20T21:27:29.164Z,9.10
2017-06-20T21:29:57.566Z,10.20
2017-06-20T21:32:26.010Z,9.87
2017-06-20T21:34:54.410Z,10.00
2017-06-20T21:37:23.569Z,8.20
2017-06-20T21:39:51.972Z,10.10
2017-06-20T21:42:20.357Z,8.43
2017-06-20T21:44:48.781Z,9.70
2017-06-20T21:47:17.168Z,9.50
2017-06-20T21:49:45.546Z,8.53
2017-06-20T21:52:13.956Z,9.37
2017-06-20T21:54:42.337Z,9.80
2017-06-20T21:57:11.537Z,9.77
2017-06-20T21:59:40.700Z,8.83
2017-06-20T22:02:09.095Z,8.40
2017-06-20T22:04:37.502Z,8.40
2017-06-20T22:07:05.890Z,7.03
2017-06-20T22:09:34.298Z,8.73
2017-06-20T22:12:02.691Z,8.23
2017-06-20T22:14:31.071Z,8.30
2017-06-20T22:16:59.478Z,8.60
2017-06-20T22:19:27.853Z,8.27
2017-06-20T22:21:57.034Z,8.80
2017-06-20T22:24:25.436Z,8.40
2017-06-20T22:26:54.611Z,8.07
2017-06-20T22:29:23.013Z,7.80
2017-06-20T22:31:51.421Z,8.53
2017-06-20T22:34:19.853Z,9.20
2017-06-20T22:36:48.245Z,9.30
2017-06-20T22:39:17.398Z,7.50
2017-06-20T22:41:45.801Z,8.10
2017-06-20T22:44:14.189Z,9.30
2017-06-20T22:46:42.607Z,10.03
2017-06-20T22:49:10.998Z,7.30
2017-06-20T22:51:39.374Z,8.87
2017-06-20T22:54:07.776Z,7.70
2017-06-20T22:56:36.215Z,8.10
2017-06-20T22:59:04.634Z,8.00
2017-06-20T23:01:33.020Z,9.43
2017-06-20T23:04:01.404Z,8.47
2017-06-20T23:06:29.822Z,8.43
2017-06-20T23:08:58.288Z,9.30
2017-06-20T23:11:27.476Z,8.07
2017-06-20T23:13:56.630Z,7.43
2017-06-20T23:16:25.097Z,7.37
2017-06-20T23:18:53.512Z,9.40
2017-06-20T23:21:21.903Z,8.87
2017-06-20T23:23:50.341Z,7.50
2017-06-20T23:26:18.727Z,8.00
2017-06-20T23:28:47.124Z,7.20
2017-06-20T23:31:15.525Z,8.67
2017-06-20T23:33:43.944Z,7.83
2017-06-20T23:36:12.359Z,7.87
2017-06-20T23:38:40.759Z,7.43
2017-06-20T23:41:09.156Z,6.80
2017-06-20T23:43:37.573Z,7.43
2017-06-20T23:46:05.962Z,8.00
2017-06-20T23:48:34.380Z,8.07
2017-06-20T23:51:02.770Z,7.70
2017-06-20T23:53:31.170Z,8.10
2017-06-20T23:55:59.580Z,6.80
2017-06-20T23:58:27.969Z,8.13
